createdAt,value
2022-07-31T00:00:25.994Z,100315.16
2022-07-31T00:02:53.049Z,100316.31
2022-07-31T00:05:20.075Z,100312.28
2022-07-31T00:07:47.291Z,100311.88
2022-07-31T00:10:14.489Z,100309.84
2022-07-31T00:12:41.688Z,100309.44
2022-07-31T00:15:12.833Z,100296.94
2022-07-31T00:17:40.969Z,100303.41
2022-07-31T00:20:09.170Z,100300.59
2022-07-31T00:22:36.159Z,100304.22
2022-07-31T00:25:03.227Z,100306.63
2022-07-31T00:27:30.326Z,100302.69
2022-07-31T00:29:57.466Z,100305.16
2022-07-31T00:32:24.574Z,100304.75
2022-07-31T00:34:51.622Z,100306.28
2022-07-31T00:37:18.669Z,100310.78
2022-07-31T00:39:46.142Z,100326.91
2022-07-31T00:42:24.807Z,100329.72
2022-07-31T00:44:52.860Z,100329.72
2022-07-31T00:47:23.799Z,100333.34
2022-07-31T00:49:51.365Z,100336.16
2022-07-31T00:52:18.362Z,100333.00
2022-07-31T00:54:45.560Z,100335.78
2022-07-31T00:57:12.574Z,100335.81
2022-07-31T00:59:39.670Z,100338.19
2022-07-31T01:02:08.452Z,100333.84
2022-07-31T01:04:35.567Z,100343.50
2022-07-31T01:07:03.818Z,100353.56
2022-07-31T01:09:31.029Z,100348.75
2022-07-31T01:12:00.215Z,100353.59
2022-07-31T01:14:35.654Z,100349.56
2022-07-31T01:17:06.975Z,100341.13
2022-07-31T01:19:43.102Z,100341.13
2022-07-31T01:22:34.221Z,100338.31
2022-07-31T01:25:17.538Z,100337.91
2022-07-31T01:28:28.293Z,100337.53
2022-07-31T01:31:26.199Z,100327.91
2022-07-31T01:34:04.127Z,100329.53
2022-07-31T01:36:35.253Z,100325.88
2022-07-31T01:39:04.814Z,100324.31
2022-07-31T01:41:38.005Z,100319.09
2022-07-31T01:44:07.377Z,100315.47
2022-07-31T01:46:42.441Z,100315.47
2022-07-31T01:49:13.134Z,100317.13
2022-07-31T01:51:44.275Z,100315.09
2022-07-31T01:54:14.671Z,100307.09
2022-07-31T01:56:43.024Z,100303.84
2022-07-31T01:59:20.449Z,100310.28
2022-07-31T02:02:10.195Z,100293.00
2022-07-31T02:04:38.545Z,100289.34
2022-07-31T02:07:08.421Z,100289.78
2022-07-31T02:09:37.562Z,100290.59
2022-07-31T02:12:09.779Z,100285.78
2022-07-31T02:14:40.851Z,100271.25
2022-07-31T02:17:10.370Z,100270.38
2022-07-31T02:20:00.836Z,100270.75
2022-07-31T02:22:29.647Z,100267.50
2022-07-31T02:24:56.892Z,100275.13
2022-07-31T02:27:53.876Z,100281.16
2022-07-31T02:30:13.871Z,100280.38
2022-07-31T02:32:41.851Z,100287.28
2022-07-31T02:35:10.023Z,100277.22
2022-07-31T02:37:39.225Z,100273.63
2022-07-31T02:40:08.079Z,100280.50
2022-07-31T02:42:36.699Z,100276.84
2022-07-31T02:45:04.956Z,100276.06
2022-07-31T02:47:33.300Z,100283.34
2022-07-31T02:50:03.421Z,100279.31
2022-07-31T02:52:30.847Z,100278.09
2022-07-31T03:13:06.913Z,100274.69
2022-07-31T03:15:36.470Z,100275.44
2022-07-31T03:18:08.345Z,100269.78
2022-07-31T03:20:42.607Z,100252.88
2022-07-31T03:23:12.716Z,100260.47
2022-07-31T03:25:50.767Z,100262.06
2022-07-31T03:28:21.767Z,100262.47
2022-07-31T03:30:55.246Z,100261.59
2022-07-31T03:33:26.802Z,100259.53
2022-07-31T03:35:54.218Z,100257.50
2022-07-31T03:38:38.552Z,100255.81
2022-07-31T03:41:10.755Z,100252.97
2022-07-31T03:43:44.246Z,100252.16
2022-07-31T03:46:18.763Z,100253.31
2022-07-31T03:48:46.894Z,100245.25
2022-07-31T03:51:14.869Z,100249.22
2022-07-31T03:53:42.823Z,100239.06
2022-07-31T03:56:17.393Z,100233.84
2022-07-31T03:58:52.412Z,100232.75
2022-07-31T04:01:21.865Z,100224.06
2022-07-31T04:03:58.761Z,100227.84
2022-07-31T04:06:31.445Z,100220.00
2022-07-31T04:09:01.623Z,100218.81
2022-07-31T04:11:42.838Z,100220.56
2022-07-31T04:14:10.862Z,100224.03
2022-07-31T04:16:38.082Z,100227.59
2022-07-31T04:19:05.210Z,100226.97
2022-07-31T04:21:32.316Z,100222.66
2022-07-31T04:23:59.564Z,100229.25
2022-07-31T04:26:49.497Z,100229.72
2022-07-31T04:29:17.930Z,100236.94
2022-07-31T04:31:45.857Z,100229.00
2022-07-31T04:34:17.045Z,100222.66
2022-07-31T04:36:44.099Z,100222.03
2022-07-31T04:39:11.805Z,100225.78
2022-07-31T04:41:40.082Z,100227.88
2022-07-31T04:44:07.300Z,100234.03
2022-07-31T04:46:51.175Z,100229.72
2022-07-31T04:49:18.981Z,100226.03
2022-07-31T04:51:46.427Z,100238.13
2022-07-31T04:54:14.423Z,100243.03
2022-07-31T04:56:44.382Z,100242.06
2022-07-31T04:59:13.330Z,100234.25
2022-07-31T05:01:43.835Z,100245.19
2022-07-31T05:04:13.623Z,100240.06
2022-07-31T05:06:52.401Z,100235.75
2022-07-31T05:09:25.357Z,100225.03
2022-07-31T05:11:57.337Z,100235.19
2022-07-31T05:14:24.440Z,100226.66
2022-07-31T05:16:52.418Z,100226.59
2022-07-31T05:19:19.818Z,100233.34
2022-07-31T05:22:22.134Z,100231.91
2022-07-31T05:25:08.083Z,100239.50
2022-07-31T05:27:36.088Z,100238.59
2022-07-31T05:30:08.268Z,100244.41
2022-07-31T05:32:35.339Z,100241.38
2022-07-31T05:35:02.361Z,100237.09
2022-07-31T05:37:29.274Z,100233.97
2022-07-31T05:39:59.401Z,100235.72
2022-07-31T05:42:45.129Z,100235.59
2022-07-31T05:45:23.624Z,100236.47
2022-07-31T05:47:50.833Z,100237.75
2022-07-31T05:50:18.191Z,100240.06
2022-07-31T05:52:46.112Z,100243.78
2022-07-31T05:55:39.662Z,100240.81
2022-07-31T05:58:26.131Z,100239.44
2022-07-31T06:00:53.288Z,100239.31
2022-07-31T06:03:27.912Z,100239.13
2022-07-31T06:06:00.538Z,100241.56
2022-07-31T06:08:27.546Z,100239.38
2022-07-31T06:10:57.650Z,100232.53
2022-07-31T06:13:27.210Z,100235.19
2022-07-31T06:15:56.272Z,100242.34
2022-07-31T06:18:24.053Z,100236.91
2022-07-31T06:20:51.599Z,100235.34
2022-07-31T06:23:22.950Z,100236.22
2022-07-31T06:26:05.281Z,100237.78
2022-07-31T06:28:48.881Z,100231.75
2022-07-31T06:31:22.152Z,100229.50
2022-07-31T06:33:52.937Z,100225.53
2022-07-31T06:36:24.102Z,100233.31
2022-07-31T06:38:58.316Z,100233.16
2022-07-31T06:41:46.825Z,100232.03
2022-07-31T06:44:29.479Z,100235.31
2022-07-31T06:47:19.530Z,100227.22
2022-07-31T06:49:49.426Z,100221.66
2022-07-31T06:52:17.214Z,100225.56
2022-07-31T06:54:44.855Z,100216.38
2022-07-31T06:57:12.684Z,100219.34
2022-07-31T06:59:40.859Z,100216.03
2022-07-31T07:02:09.332Z,100207.53
2022-07-31T07:05:04.343Z,100215.63
2022-07-31T07:07:23.808Z,100200.19
2022-07-31T07:09:53.709Z,100217.13
2022-07-31T07:12:40.679Z,100208.25
2022-07-31T07:15:09.358Z,100210.78
2022-07-31T07:17:36.657Z,100201.13
2022-07-31T07:20:08.064Z,100203.84
2022-07-31T07:22:35.104Z,100203.91
2022-07-31T07:25:03.338Z,100210.34
2022-07-31T07:27:30.485Z,100199.06
2022-07-31T07:29:57.892Z,100205.91
2022-07-31T07:32:25.598Z,100200.19
2022-07-31T07:35:00.234Z,100200.78
2022-07-31T07:37:56.824Z,100190.25
2022-07-31T07:40:26.061Z,100188.34
2022-07-31T07:42:53.802Z,100196.75
2022-07-31T07:45:21.297Z,100193.44
2022-07-31T07:48:05.221Z,100188.28
2022-07-31T07:50:46.300Z,100193.31
2022-07-31T07:53:28.678Z,100193.19
2022-07-31T07:56:14.562Z,100185.25
2022-07-31T07:59:04.410Z,100186.16
2022-07-31T08:01:51.460Z,100197.09
2022-07-31T08:04:23.846Z,100184.88
2022-07-31T08:06:50.991Z,100183.25
2022-07-31T08:09:23.304Z,100190.53
2022-07-31T08:12:10.530Z,100192.44
2022-07-31T08:15:07.589Z,100185.59
2022-07-31T08:17:46.756Z,100190.75
2022-07-31T08:20:14.625Z,100188.47
2022-07-31T08:22:41.817Z,100198.03
2022-07-31T08:25:14.192Z,100191.84
2022-07-31T08:27:43.555Z,100190.59
2022-07-31T08:30:16.146Z,100180.81
2022-07-31T08:32:43.252Z,100200.84
2022-07-31T08:35:10.232Z,100188.16
2022-07-31T08:37:59.155Z,100194.13
2022-07-31T08:40:29.177Z,100187.16
2022-07-31T08:42:56.914Z,100189.47
2022-07-31T08:45:28.931Z,100195.88
2022-07-31T08:48:09.857Z,100194.75
2022-07-31T08:50:46.807Z,100199.41
2022-07-31T08:53:37.376Z,100203.63
2022-07-31T08:56:11.435Z,100198.63
2022-07-31T08:58:39.949Z,100185.13
2022-07-31T09:01:11.845Z,100186.66
2022-07-31T09:03:39.255Z,100185.34
2022-07-31T09:06:10.973Z,100170.47
2022-07-31T09:08:38.541Z,100167.91
2022-07-31T09:11:13.615Z,100174.81
2022-07-31T09:14:02.593Z,100173.31
2022-07-31T09:16:50.541Z,100171.75
2022-07-31T09:19:53.958Z,100175.38
2022-07-31T09:22:27.327Z,100165.66
2022-07-31T09:25:19.069Z,100165.59
2022-07-31T09:27:48.338Z,100173.34
2022-07-31T09:30:16.963Z,100165.34
2022-07-31T09:33:19.790Z,100159.00
2022-07-31T09:36:05.900Z,100154.03
2022-07-31T09:38:41.914Z,100151.50
2022-07-31T09:42:00.995Z,100140.88
2022-07-31T09:44:25.974Z,100143.59
2022-07-31T09:46:53.978Z,100140.72
2022-07-31T09:49:30.851Z,100160.50
2022-07-31T09:51:58.139Z,100147.31
2022-07-31T09:54:27.377Z,100156.97
2022-07-31T09:57:12.537Z,100153.25
2022-07-31T09:59:45.726Z,100149.72
2022-07-31T10:02:15.853Z,100156.09
2022-07-31T10:04:48.625Z,100149.69
2022-07-31T10:07:31.798Z,100154.88
2022-07-31T10:10:08.018Z,100155.50
2022-07-31T10:12:56.160Z,100164.25
2022-07-31T10:15:25.924Z,100168.06
2022-07-31T10:18:11.612Z,100171.97
2022-07-31T10:21:18.233Z,100179.88
2022-07-31T10:23:59.953Z,100178.38
2022-07-31T10:26:50.682Z,100170.75
2022-07-31T10:29:17.878Z,100163.41
2022-07-31T10:31:46.830Z,100161.81
2022-07-31T10:34:16.041Z,100164.94
2022-07-31T10:37:15.428Z,100165.50
2022-07-31T10:40:09.988Z,100162.56
2022-07-31T10:42:53.064Z,100157.97
2022-07-31T10:45:22.293Z,100152.31
2022-07-31T10:47:58.103Z,100150.69
2022-07-31T10:50:44.505Z,100145.78
2022-07-31T10:53:50.215Z,100141.00
2022-07-31T10:56:43.473Z,100133.09
2022-07-31T10:59:37.775Z,100124.84
2022-07-31T11:02:34.023Z,100127.91
2022-07-31T11:05:28.185Z,100137.41
2022-07-31T11:08:12.070Z,100135.81
2022-07-31T11:10:57.953Z,100137.25
2022-07-31T11:13:53.164Z,100133.69
2022-07-31T11:16:55.935Z,100141.75
2022-07-31T11:19:55.505Z,100147.06
2022-07-31T11:22:30.726Z,100136.03
2022-07-31T11:25:00.999Z,100142.84
2022-07-31T11:27:35.243Z,100148.28
2022-07-31T11:30:12.513Z,100149.28
2022-07-31T11:32:41.364Z,100154.75
2022-07-31T11:35:09.189Z,100145.81
2022-07-31T11:37:46.141Z,100148.66
2022-07-31T11:40:27.310Z,100146.09
2022-07-31T11:43:24.151Z,100147.19
2022-07-31T11:45:50.581Z,100149.94
2022-07-31T11:48:20.030Z,100152.53
2022-07-31T11:50:48.598Z,100135.00
2022-07-31T11:53:17.034Z,100130.44
2022-07-31T11:56:04.619Z,100147.06
2022-07-31T11:58:31.602Z,100134.72
2022-07-31T12:01:01.889Z,100128.22
2022-07-31T12:03:32.669Z,100128.50
2022-07-31T12:06:00.530Z,100127.06
2022-07-31T12:08:28.678Z,100125.50
2022-07-31T12:11:00.514Z,100130.69
2022-07-31T12:13:29.054Z,100127.25
2022-07-31T12:16:04.382Z,100124.53
2022-07-31T12:18:45.114Z,100119.63
2022-07-31T12:21:12.363Z,100115.63
2022-07-31T12:23:50.743Z,100097.47
2022-07-31T12:26:30.274Z,100106.84
2022-07-31T12:29:02.788Z,100104.94
2022-07-31T12:31:32.611Z,100103.81
2022-07-31T12:33:59.775Z,100107.28
2022-07-31T12:36:27.471Z,100096.22
2022-07-31T12:39:02.468Z,100093.38
2022-07-31T12:41:30.589Z,100093.66
2022-07-31T12:44:14.632Z,100093.81
2022-07-31T12:46:42.135Z,100083.22
2022-07-31T12:49:09.742Z,100077.66
2022-07-31T12:51:44.090Z,100093.50
2022-07-31T12:54:13.004Z,100089.09
2022-07-31T12:56:41.283Z,100085.75
2022-07-31T12:59:09.703Z,100087.66
2022-07-31T13:01:37.306Z,100084.50
2022-07-31T13:04:08.013Z,100083.84
2022-07-31T13:06:46.031Z,100080.84
2022-07-31T13:09:13.092Z,100088.16
2022-07-31T13:11:45.914Z,100081.31
2022-07-31T13:14:15.185Z,100078.44
2022-07-31T13:16:42.696Z,100076.72
2022-07-31T13:19:09.812Z,100067.72
2022-07-31T13:21:42.334Z,100070.25
2022-07-31T13:24:18.155Z,100060.91
2022-07-31T13:26:45.777Z,100058.69
2022-07-31T13:29:13.223Z,100065.00
2022-07-31T13:31:40.399Z,100059.47
2022-07-31T13:34:07.497Z,100059.94
2022-07-31T13:36:39.286Z,100058.16
2022-07-31T13:39:08.317Z,100059.34
2022-07-31T13:41:35.884Z,100047.13
2022-07-31T13:44:04.060Z,100052.88
2022-07-31T13:46:31.877Z,100054.59
2022-07-31T13:49:01.038Z,100044.00
2022-07-31T13:51:29.474Z,100051.06
2022-07-31T13:53:56.738Z,100046.94
2022-07-31T13:56:38.781Z,100048.78
2022-07-31T13:59:14.107Z,100038.50
2022-07-31T14:02:04.537Z,100036.81
2022-07-31T14:04:32.935Z,100043.16
2022-07-31T14:07:06.878Z,100034.53
2022-07-31T14:09:35.007Z,100034.22
2022-07-31T14:12:04.475Z,100037.38
2022-07-31T14:14:32.357Z,100036.06
2022-07-31T14:16:59.498Z,100040.09
2022-07-31T14:19:26.650Z,100036.59
2022-07-31T14:21:56.647Z,100026.88
2022-07-31T14:24:25.747Z,100038.34
2022-07-31T14:26:53.032Z,100042.56
2022-07-31T14:29:20.381Z,100032.13
2022-07-31T14:31:47.380Z,100034.91
2022-07-31T14:34:14.418Z,100028.25
2022-07-31T14:36:41.428Z,100022.22
2022-07-31T14:39:08.566Z,100027.41
2022-07-31T14:41:35.609Z,100027.88
2022-07-31T14:44:02.655Z,100019.88
2022-07-31T14:46:29.747Z,100016.13
2022-07-31T14:48:56.903Z,100005.22
2022-07-31T14:51:24.061Z,100000.66
2022-07-31T14:53:52.498Z,99997.78
2022-07-31T14:56:34.709Z,100002.41
2022-07-31T15:14:22.890Z,100004.94
2022-07-31T15:16:49.967Z,100000.28
2022-07-31T15:19:17.086Z,100008.66
2022-07-31T15:22:10.100Z,100018.75
2022-07-31T15:24:34.175Z,100022.72
2022-07-31T15:27:01.166Z,100032.94
2022-07-31T15:30:03.315Z,100042.13
2022-07-31T15:32:15.338Z,100053.25
2022-07-31T15:34:42.382Z,100054.03
2022-07-31T15:37:09.439Z,100060.97
2022-07-31T15:39:37.293Z,100057.81
2022-07-31T15:42:04.518Z,100065.50
2022-07-31T15:44:31.695Z,100050.66
2022-07-31T15:46:58.713Z,100056.97
2022-07-31T15:49:25.672Z,100057.00
2022-07-31T15:51:52.822Z,100063.44
2022-07-31T15:54:19.785Z,100063.75
2022-07-31T15:56:47.300Z,100068.47
2022-07-31T15:59:14.354Z,100067.16
2022-07-31T16:01:41.675Z,100068.75
2022-07-31T16:04:16.705Z,100067.59
2022-07-31T16:06:47.480Z,100067.22
2022-07-31T16:09:17.640Z,100061.03
2022-07-31T16:12:04.480Z,100066.97
2022-07-31T16:14:31.705Z,100066.19
2022-07-31T16:16:58.697Z,100061.63
2022-07-31T16:19:26.021Z,100068.94
2022-07-31T16:21:53.751Z,100055.19
2022-07-31T16:24:22.356Z,100047.72
2022-07-31T16:26:49.670Z,100043.84
2022-07-31T16:29:17.776Z,100047.63
2022-07-31T16:32:04.691Z,100052.72
2022-07-31T16:34:31.602Z,100055.56
2022-07-31T16:36:58.652Z,100060.59
2022-07-31T16:39:25.796Z,100061.47
2022-07-31T16:41:55.002Z,100073.81
2022-07-31T16:44:22.293Z,100070.88
2022-07-31T16:46:54.527Z,100062.19
2022-07-31T16:49:35.538Z,100069.69
2022-07-31T16:52:04.434Z,100074.56
2022-07-31T16:54:31.530Z,100073.06
2022-07-31T16:56:58.570Z,100075.34
2022-07-31T16:59:25.581Z,100068.03
2022-07-31T17:01:59.682Z,100077.38
2022-07-31T17:04:28.634Z,100074.47
2022-07-31T17:06:55.837Z,100086.19
2022-07-31T17:09:23.225Z,100083.94
2022-07-31T17:11:53.044Z,100094.63
2022-07-31T17:14:22.460Z,100095.13
2022-07-31T17:16:51.493Z,100092.09
2022-07-31T17:19:42.631Z,100089.59
2022-07-31T17:22:08.138Z,100079.47
2022-07-31T17:24:38.030Z,100079.88
2022-07-31T17:27:07.700Z,100085.31
2022-07-31T17:29:35.291Z,100090.84
2022-07-31T17:32:02.618Z,100090.75
2022-07-31T17:34:29.646Z,100095.88
2022-07-31T17:36:56.750Z,100099.63
2022-07-31T17:39:26.175Z,100112.53
2022-07-31T17:41:57.153Z,100114.16
2022-07-31T17:44:24.212Z,100113.03
2022-07-31T17:46:51.336Z,100131.59
2022-07-31T17:49:19.426Z,100158.00
2022-07-31T17:51:59.214Z,100175.22
2022-07-31T17:54:29.110Z,100183.22
2022-07-31T17:56:56.166Z,100177.88
2022-07-31T17:59:23.426Z,100186.59
2022-07-31T18:02:02.199Z,100178.47
2022-07-31T18:04:31.353Z,100185.38
2022-07-31T18:06:59.469Z,100188.09
2022-07-31T18:09:27.688Z,100205.50
2022-07-31T18:11:55.526Z,100249.00
2022-07-31T18:14:24.763Z,100234.63
2022-07-31T18:16:52.528Z,100243.03
2022-07-31T18:19:21.447Z,100241.38
2022-07-31T18:21:48.709Z,100245.41
2022-07-31T18:24:15.732Z,100238.59
2022-07-31T18:26:42.719Z,100248.25
2022-07-31T18:29:09.701Z,100239.00
2022-07-31T18:31:36.633Z,100213.34
2022-07-31T18:34:05.065Z,100209.34
2022-07-31T18:36:33.091Z,100208.50
2022-07-31T18:39:00.349Z,100209.31
2022-07-31T18:41:27.747Z,100216.13
2022-07-31T18:43:55.276Z,100197.28
2022-07-31T18:46:23.849Z,100193.31
2022-07-31T18:48:55.545Z,100183.66
2022-07-31T18:51:23.816Z,100185.28
2022-07-31T18:53:51.525Z,100197.31
2022-07-31T18:56:21.466Z,100200.53
2022-07-31T18:58:48.488Z,100212.16
2022-07-31T19:01:15.715Z,100219.75
2022-07-31T19:03:42.778Z,100229.41
2022-07-31T19:06:09.782Z,100230.63
2022-07-31T19:08:36.812Z,100231.81
2022-07-31T19:11:04.004Z,100227.38
2022-07-31T19:13:31.046Z,100218.56
2022-07-31T19:15:58.004Z,100212.94
2022-07-31T19:18:28.556Z,100233.81
2022-07-31T19:21:18.017Z,100221.00
2022-07-31T19:23:44.230Z,100213.38
2022-07-31T19:26:11.535Z,100217.38
2022-07-31T19:28:43.368Z,100219.78
2022-07-31T19:31:11.654Z,100220.97
2022-07-31T19:33:39.195Z,100225.38
2022-07-31T19:36:06.666Z,100223.75
2022-07-31T19:38:36.002Z,100221.75
2022-07-31T19:41:03.992Z,100228.19
2022-07-31T19:43:31.451Z,100225.78
2022-07-31T19:46:10.693Z,100231.00
2022-07-31T19:48:41.875Z,100224.59
2022-07-31T19:51:10.463Z,100228.59
2022-07-31T19:53:37.654Z,100226.97
2022-07-31T19:56:07.866Z,100226.16
2022-07-31T19:58:36.218Z,100229.78
2022-07-31T20:01:05.401Z,100229.78
2022-07-31T20:03:32.979Z,100232.63
2022-07-31T20:06:00.336Z,100226.19
2022-07-31T20:08:29.622Z,100225.00
2022-07-31T20:11:03.474Z,100228.19
2022-07-31T20:13:34.890Z,100236.59
2022-07-31T20:16:02.309Z,100232.63
2022-07-31T20:18:30.647Z,100219.41
2022-07-31T20:21:03.674Z,100211.78
2022-07-31T20:23:34.202Z,100217.38
2022-07-31T20:26:01.652Z,100224.19
2022-07-31T20:28:28.702Z,100222.19
2022-07-31T20:30:55.740Z,100225.78
2022-07-31T20:33:22.697Z,100221.41
2022-07-31T20:35:50.576Z,100210.97
2022-07-31T20:38:22.803Z,100209.75
2022-07-31T20:40:53.823Z,100212.16
2022-07-31T20:43:24.131Z,100217.34
2022-07-31T20:45:52.474Z,100208.97
2022-07-31T20:48:21.640Z,100222.94
2022-07-31T20:50:48.824Z,100220.94
2022-07-31T20:53:16.810Z,100217.34
2022-07-31T20:55:49.419Z,100217.75
2022-07-31T20:58:21.562Z,100214.94
2022-07-31T21:00:50.275Z,100215.31
2022-07-31T21:03:18.020Z,100210.47
2022-07-31T21:05:46.149Z,100211.28
2022-07-31T21:08:13.346Z,100216.84
2022-07-31T21:10:40.889Z,100212.41
2022-07-31T21:13:08.156Z,100208.38
2022-07-31T21:15:42.814Z,100210.75
2022-07-31T21:18:16.594Z,100207.16
2022-07-31T21:20:51.007Z,100201.97
2022-07-31T21:23:24.818Z,100194.34
2022-07-31T21:25:53.011Z,100197.13
2022-07-31T21:28:21.018Z,100197.13
2022-07-31T21:30:48.342Z,100196.34
2022-07-31T21:33:15.386Z,100190.31
2022-07-31T21:35:42.631Z,100192.72
2022-07-31T21:38:15.358Z,100193.53
2022-07-31T21:40:43.006Z,100187.53
2022-07-31T21:43:12.470Z,100183.53
2022-07-31T21:45:55.202Z,100197.59
2022-07-31T21:48:25.372Z,100184.03
2022-07-31T21:50:53.510Z,100181.59
2022-07-31T21:53:20.712Z,100192.03
2022-07-31T21:55:48.055Z,100196.84
2022-07-31T21:58:15.153Z,100190.84
2022-07-31T22:00:43.005Z,100182.44
2022-07-31T22:03:10.250Z,100180.44
2022-07-31T22:05:55.660Z,100182.03
2022-07-31T22:08:22.928Z,100183.66
2022-07-31T22:10:51.865Z,100176.44
2022-07-31T22:13:19.892Z,100180.84
2022-07-31T22:15:52.620Z,100176.03
2022-07-31T22:18:31.287Z,100174.06
2022-07-31T22:20:59.389Z,100173.66
2022-07-31T22:23:27.748Z,100168.47
2022-07-31T22:25:55.675Z,100174.06
2022-07-31T22:28:23.705Z,100173.28
2022-07-31T22:30:51.733Z,100160.03
2022-07-31T22:33:19.488Z,100165.66
2022-07-31T22:35:59.615Z,100169.69
2022-07-31T22:38:30.459Z,100168.06
2022-07-31T22:41:01.754Z,100163.28
2022-07-31T22:44:11.175Z,100164.06
2022-07-31T22:46:16.600Z,100160.88
2022-07-31T22:48:46.176Z,100166.50
2022-07-31T22:51:14.894Z,100156.06
2022-07-31T22:53:43.712Z,100158.88
2022-07-31T22:56:10.816Z,100152.88
2022-07-31T22:58:38.011Z,100160.84
2022-07-31T23:01:05.302Z,100154.47
2022-07-31T23:03:32.260Z,100154.81
2022-07-31T23:06:03.102Z,100158.84
2022-07-31T23:08:53.713Z,100152.44
2022-07-31T23:11:23.145Z,100155.63
2022-07-31T23:13:51.221Z,100152.47
2022-07-31T23:16:18.417Z,100160.44
2022-07-31T23:18:45.477Z,100151.63
2022-07-31T23:21:12.608Z,100152.81
2022-07-31T23:23:39.597Z,100143.22
2022-07-31T23:26:06.757Z,100145.22
2022-07-31T23:28:33.963Z,100143.22
2022-07-31T23:31:00.947Z,100143.22
2022-07-31T23:33:27.895Z,100140.41
2022-07-31T23:35:55.000Z,100142.00
2022-07-31T23:38:22.052Z,100152.00
2022-07-31T23:40:49.113Z,100148.03
2022-07-31T23:43:20.603Z,100153.25
2022-07-31T23:45:48.001Z,100154.44
2022-07-31T23:48:15.772Z,100146.03
2022-07-31T23:50:44.300Z,100143.59
2022-07-31T23:53:11.345Z,100132.81
2022-07-31T23:55:40.381Z,100130.41
2022-07-31T23:58:11.329Z,100125.19
